sensor_id;sensor_type;location;lat;lon;timestamp;pressure;altitude;pressure_sealevel;temperature;humidity
25420;BME280;13354;48.174;11.566;2023-04-26T00:02:22;95631.84;;;7.24;91.26
25420;BME280;13354;48.174;11.566;2023-04-26T00:04:51;95626.47;;;7.17;90.13
25420;BME280;13354;48.174;11.566;2023-04-26T00:07:20;95622.81;;;7.26;89.94
25420;BME280;13354;48.174;11.566;2023-04-26T00:09:46;95620.94;;;7.35;88.85
25420;BME280;13354;48.174;11.566;2023-04-26T00:12:12;95621.31;;;7.24;89.15
25420;BME280;13354;48.174;11.566;2023-04-26T00:14:37;95620.31;;;7.25;89.70
25420;BME280;13354;48.174;11.566;2023-04-26T00:17:02;95611.63;;;7.24;89.63
25420;BME280;13354;48.174;11.566;2023-04-26T00:19:28;95608.16;;;7.24;89.59
25420;BME280;13354;48.174;11.566;2023-04-26T00:21:53;95615.06;;;7.25;89.01
25420;BME280;13354;48.174;11.566;2023-04-26T00:24:18;95621.13;;;7.34;88.74
25420;BME280;13354;48.174;11.566;2023-04-26T00:26:44;95625.09;;;7.30;88.89
25420;BME280;13354;48.174;11.566;2023-04-26T00:29:09;95627.78;;;7.13;89.21
25420;BME280;13354;48.174;11.566;2023-04-26T00:31:34;95618.06;;;7.14;88.69
25420;BME280;13354;48.174;11.566;2023-04-26T00:33:59;95614.81;;;7.12;89.22
25420;BME280;13354;48.174;11.566;2023-04-26T00:36:25;95619.97;;;6.97;89.65
25420;BME280;13354;48.174;11.566;2023-04-26T00:38:50;95618.50;;;6.94;90.00
25420;BME280;13354;48.174;11.566;2023-04-26T00:41:15;95622.75;;;6.95;90.62
25420;BME280;13354;48.174;11.566;2023-04-26T00:43:40;95623.06;;;7.09;90.73
25420;BME280;13354;48.174;11.566;2023-04-26T00:46:07;95615.09;;;7.17;90.31
25420;BME280;13354;48.174;11.566;2023-04-26T00:48:32;95621.22;;;7.09;90.06
25420;BME280;13354;48.174;11.566;2023-04-26T00:50:58;95621.94;;;6.95;90.97
25420;BME280;13354;48.174;11.566;2023-04-26T00:53:23;95608.41;;;7.06;90.63
25420;BME280;13354;48.174;11.566;2023-04-26T00:55:50;95612.41;;;6.94;90.76
25420;BME280;13354;48.174;11.566;2023-04-26T00:58:16;95612.91;;;6.97;90.80
25420;BME280;13354;48.174;11.566;2023-04-26T01:00:42;95615.19;;;7.00;89.36
25420;BME280;13354;48.174;11.566;2023-04-26T01:03:07;95629.06;;;6.86;89.54
25420;BME280;13354;48.174;11.566;2023-04-26T01:05:33;95624.59;;;6.95;90.26
25420;BME280;13354;48.174;11.566;2023-04-26T01:07:58;95636.41;;;6.99;90.31
25420;BME280;13354;48.174;11.566;2023-04-26T01:10:26;95627.88;;;6.97;89.55
25420;BME280;13354;48.174;11.566;2023-04-26T01:12:52;95625.91;;;6.91;90.53
25420;BME280;13354;48.174;11.566;2023-04-26T01:15:18;95630.31;;;6.98;89.26
25420;BME280;13354;48.174;11.566;2023-04-26T01:17:45;95634.72;;;7.06;88.79
25420;BME280;13354;48.174;11.566;2023-04-26T01:20:12;95633.13;;;6.97;88.93
25420;BME280;13354;48.174;11.566;2023-04-26T01:22:37;95631.66;;;6.94;89.51
25420;BME280;13354;48.174;11.566;2023-04-26T01:25:03;95634.19;;;6.80;90.20
25420;BME280;13354;48.174;11.566;2023-04-26T01:27:28;95635.81;;;6.89;89.87
25420;BME280;13354;48.174;11.566;2023-04-26T01:29:53;95634.84;;;6.73;89.62
25420;BME280;13354;48.174;11.566;2023-04-26T01:32:19;95638.16;;;6.67;90.06
25420;BME280;13354;48.174;11.566;2023-04-26T01:34:44;95638.16;;;6.67;90.57
25420;BME280;13354;48.174;11.566;2023-04-26T01:37:10;95635.34;;;6.69;91.18
25420;BME280;13354;48.174;11.566;2023-04-26T01:39:35;95636.50;;;6.66;91.04
25420;BME280;13354;48.174;11.566;2023-04-26T01:42:01;95630.06;;;6.77;90.28
25420;BME280;13354;48.174;11.566;2023-04-26T01:44:26;95638.47;;;6.72;90.98
25420;BME280;13354;48.174;11.566;2023-04-26T01:46:52;95641.63;;;6.68;91.07
25420;BME280;13354;48.174;11.566;2023-04-26T01:49:19;95642.44;;;6.68;90.51
25420;BME280;13354;48.174;11.566;2023-04-26T01:51:44;95635.22;;;6.54;89.96
25420;BME280;13354;48.174;11.566;2023-04-26T01:54:09;95637.97;;;6.85;89.79
25420;BME280;13354;48.174;11.566;2023-04-26T01:56:34;95640.44;;;6.78;89.01
25420;BME280;13354;48.174;11.566;2023-04-26T01:59:00;95646.38;;;6.72;89.38
25420;BME280;13354;48.174;11.566;2023-04-26T02:01:25;95650.00;;;6.71;90.29
25420;BME280;13354;48.174;11.566;2023-04-26T02:03:50;95651.31;;;6.67;90.69
25420;BME280;13354;48.174;11.566;2023-04-26T02:06:16;95656.75;;;6.66;91.42
25420;BME280;13354;48.174;11.566;2023-04-26T02:08:41;95651.16;;;6.61;91.32
25420;BME280;13354;48.174;11.566;2023-04-26T02:11:06;95651.63;;;6.72;90.36
25420;BME280;13354;48.174;11.566;2023-04-26T02:13:31;95643.91;;;6.71;90.58
25420;BME280;13354;48.174;11.566;2023-04-26T02:15:57;95654.47;;;6.54;91.18
25420;BME280;13354;48.174;11.566;2023-04-26T02:18:23;95645.72;;;6.62;91.23
25420;BME280;13354;48.174;11.566;2023-04-26T02:20:48;95648.72;;;6.51;91.69
25420;BME280;13354;48.174;11.566;2023-04-26T02:23:13;95643.16;;;6.46;92.60
25420;BME280;13354;48.174;11.566;2023-04-26T02:25:39;95638.69;;;6.46;92.79
25420;BME280;13354;48.174;11.566;2023-04-26T02:28:06;95640.81;;;6.59;92.03
25420;BME280;13354;48.174;11.566;2023-04-26T02:30:31;95635.56;;;6.51;90.95
25420;BME280;13354;48.174;11.566;2023-04-26T02:32:56;95633.94;;;6.50;91.12
25420;BME280;13354;48.174;11.566;2023-04-26T02:35:22;95632.31;;;6.41;91.19
25420;BME280;13354;48.174;11.566;2023-04-26T02:37:47;95636.09;;;6.38;91.69
25420;BME280;13354;48.174;11.566;2023-04-26T02:40:15;95636.72;;;6.40;92.30
25420;BME280;13354;48.174;11.566;2023-04-26T02:42:40;95642.81;;;6.49;91.05
25420;BME280;13354;48.174;11.566;2023-04-26T02:45:06;95643.44;;;6.51;90.87
25420;BME280;13354;48.174;11.566;2023-04-26T02:47:32;95644.31;;;6.35;91.02
25420;BME280;13354;48.174;11.566;2023-04-26T02:49:57;95646.44;;;6.40;90.51
25420;BME280;13354;48.174;11.566;2023-04-26T02:52:22;95640.50;;;6.46;90.07
25420;BME280;13354;48.174;11.566;2023-04-26T02:54:48;95643.66;;;6.41;89.64
25420;BME280;13354;48.174;11.566;2023-04-26T02:57:13;95643.66;;;6.25;90.85
25420;BME280;13354;48.174;11.566;2023-04-26T02:59:38;95639.91;;;6.19;90.94
25420;BME280;13354;48.174;11.566;2023-04-26T03:02:03;95645.81;;;6.13;91.16
25420;BME280;13354;48.174;11.566;2023-04-26T03:04:32;95640.25;;;6.08;91.61
25420;BME280;13354;48.174;11.566;2023-04-26T03:07:03;95639.06;;;6.02;92.36
25420;BME280;13354;48.174;11.566;2023-04-26T03:09:28;95638.09;;;6.20;92.56
25420;BME280;13354;48.174;11.566;2023-04-26T03:11:54;95642.50;;;6.11;91.99
25420;BME280;13354;48.174;11.566;2023-04-26T03:14:19;95634.63;;;6.27;91.73
25420;BME280;13354;48.174;11.566;2023-04-26T03:16:44;95635.94;;;6.32;90.53
25420;BME280;13354;48.174;11.566;2023-04-26T03:19:09;95640.25;;;6.08;90.73
25420;BME280;13354;48.174;11.566;2023-04-26T03:21:35;95645.50;;;6.08;90.92
25420;BME280;13354;48.174;11.566;2023-04-26T03:24:00;95646.97;;;6.19;90.82
25420;BME280;13354;48.174;11.566;2023-04-26T03:26:25;95643.50;;;6.02;90.55
25420;BME280;13354;48.174;11.566;2023-04-26T03:28:51;95645.31;;;5.93;91.22
25420;BME280;13354;48.174;11.566;2023-04-26T03:31:16;95642.84;;;6.00;91.43
25420;BME280;13354;48.174;11.566;2023-04-26T03:33:41;95649.75;;;6.09;90.92
25420;BME280;13354;48.174;11.566;2023-04-26T03:36:06;95651.56;;;6.09;90.15
25420;BME280;13354;48.174;11.566;2023-04-26T03:38:32;95651.72;;;5.99;90.83
25420;BME280;13354;48.174;11.566;2023-04-26T03:40:57;95649.94;;;6.08;90.73
25420;BME280;13354;48.174;11.566;2023-04-26T03:43:22;95651.88;;;6.05;90.90
25420;BME280;13354;48.174;11.566;2023-04-26T03:45:48;95650.06;;;6.06;90.82
25420;BME280;13354;48.174;11.566;2023-04-26T03:48:13;95650.56;;;6.18;90.03
25420;BME280;13354;48.174;11.566;2023-04-26T03:50:38;95653.50;;;6.15;89.83
25420;BME280;13354;48.174;11.566;2023-04-26T03:53:04;95649.59;;;6.19;89.55
25420;BME280;13354;48.174;11.566;2023-04-26T03:55:29;95655.66;;;6.11;90.57
25420;BME280;13354;48.174;11.566;2023-04-26T03:57:54;95655.81;;;6.18;89.75
25420;BME280;13354;48.174;11.566;2023-04-26T04:00:19;95653.03;;;6.27;89.55
25420;BME280;13354;48.174;11.566;2023-04-26T04:02:45;95657.47;;;6.35;89.17
25420;BME280;13354;48.174;11.566;2023-04-26T04:05:10;95654.50;;;6.14;90.14
25420;BME280;13354;48.174;11.566;2023-04-26T04:07:35;95664.53;;;6.10;91.40
25420;BME280;13354;48.174;11.566;2023-04-26T04:10:01;95664.72;;;6.09;91.70
25420;BME280;13354;48.174;11.566;2023-04-26T04:12:26;95658.63;;;6.08;92.03
25420;BME280;13354;48.174;11.566;2023-04-26T04:14:51;95655.50;;;6.13;91.55
25420;BME280;13354;48.174;11.566;2023-04-26T04:17:17;95666.84;;;6.13;90.81
25420;BME280;13354;48.174;11.566;2023-04-26T04:19:42;95668.31;;;6.08;91.37
25420;BME280;13354;48.174;11.566;2023-04-26T04:22:07;95660.41;;;5.99;91.74
25420;BME280;13354;48.174;11.566;2023-04-26T04:24:33;95664.53;;;6.02;91.61
25420;BME280;13354;48.174;11.566;2023-04-26T04:26:58;95666.34;;;6.18;91.53
25420;BME280;13354;48.174;11.566;2023-04-26T04:29:25;95664.88;;;6.15;91.06
25420;BME280;13354;48.174;11.566;2023-04-26T04:31:50;95676.84;;;6.18;91.16
25420;BME280;13354;48.174;11.566;2023-04-26T04:34:16;95670.63;;;6.19;91.08
25420;BME280;13354;48.174;11.566;2023-04-26T04:36:41;95669.97;;;6.17;91.71
25420;BME280;13354;48.174;11.566;2023-04-26T04:39:07;95676.53;;;6.37;90.71
25420;BME280;13354;48.174;11.566;2023-04-26T04:41:37;95685.72;;;6.41;89.30
25420;BME280;13354;48.174;11.566;2023-04-26T04:44:02;95688.19;;;6.43;89.34
25420;BME280;13354;48.174;11.566;2023-04-26T04:46:28;95693.94;;;6.22;89.45
25420;BME280;13354;48.174;11.566;2023-04-26T04:48:53;95691.97;;;6.24;89.29
25420;BME280;13354;48.174;11.566;2023-04-26T04:51:18;95690.66;;;6.44;88.03
25420;BME280;13354;48.174;11.566;2023-04-26T04:53:43;95692.47;;;6.27;88.17
25420;BME280;13354;48.174;11.566;2023-04-26T04:56:09;95687.19;;;6.44;87.94
25420;BME280;13354;48.174;11.566;2023-04-26T04:58:34;95688.97;;;6.51;86.98
25420;BME280;13354;48.174;11.566;2023-04-26T05:01:00;95696.41;;;6.56;87.18
25420;BME280;13354;48.174;11.566;2023-04-26T05:03:25;95697.72;;;6.36;88.15
25420;BME280;13354;48.174;11.566;2023-04-26T05:05:50;95704.78;;;6.35;88.72
25420;BME280;13354;48.174;11.566;2023-04-26T05:08:15;95702.97;;;6.27;88.44
25420;BME280;13354;48.174;11.566;2023-04-26T05:10:41;95703.47;;;6.31;89.07
25420;BME280;13354;48.174;11.566;2023-04-26T05:13:06;95719.75;;;6.26;88.90
25420;BME280;13354;48.174;11.566;2023-04-26T05:15:31;95716.31;;;6.26;89.02
25420;BME280;13354;48.174;11.566;2023-04-26T05:17:56;95721.84;;;6.15;89.57
25420;BME280;13354;48.174;11.566;2023-04-26T05:20:23;95717.44;;;6.32;88.76
25420;BME280;13354;48.174;11.566;2023-04-26T05:22:48;95719.56;;;6.28;88.32
25420;BME280;13354;48.174;11.566;2023-04-26T05:25:14;95719.41;;;6.21;89.11
25420;BME280;13354;48.174;11.566;2023-04-26T05:27:41;95728.59;;;6.25;89.54
25420;BME280;13354;48.174;11.566;2023-04-26T05:30:06;95718.09;;;6.25;88.87
25420;BME280;13354;48.174;11.566;2023-04-26T05:32:32;95716.78;;;6.29;89.11
25420;BME280;13354;48.174;11.566;2023-04-26T05:34:57;95722.84;;;6.22;89.32
25420;BME280;13354;48.174;11.566;2023-04-26T05:37:22;95719.91;;;6.25;89.74
25420;BME280;13354;48.174;11.566;2023-04-26T05:39:48;95726.16;;;6.24;88.88
25420;BME280;13354;48.174;11.566;2023-04-26T05:42:13;95729.09;;;6.29;89.22
25420;BME280;13354;48.174;11.566;2023-04-26T05:44:38;95729.09;;;6.29;88.08
25420;BME280;13354;48.174;11.566;2023-04-26T05:47:03;95719.22;;;6.47;87.06
25420;BME280;13354;48.174;11.566;2023-04-26T05:49:29;95730.09;;;6.52;86.59
25420;BME280;13354;48.174;11.566;2023-04-26T05:51:54;95730.75;;;6.71;85.38
25420;BME280;13354;48.174;11.566;2023-04-26T05:54:19;95731.56;;;6.55;86.15
25420;BME280;13354;48.174;11.566;2023-04-26T05:56:46;95730.25;;;6.51;86.75
25420;BME280;13354;48.174;11.566;2023-04-26T05:59:11;95730.75;;;6.54;86.41
25420;BME280;13354;48.174;11.566;2023-04-26T06:01:37;95723.66;;;6.55;86.50
25420;BME280;13354;48.174;11.566;2023-04-26T06:04:02;95733.03;;;6.58;85.64
25420;BME280;13354;48.174;11.566;2023-04-26T06:06:28;95736.00;;;6.46;86.74
25420;BME280;13354;48.174;11.566;2023-04-26T06:08:53;95739.94;;;6.67;86.43
25420;BME280;13354;48.174;11.566;2023-04-26T06:11:18;95746.50;;;6.79;86.21
25420;BME280;13354;48.174;11.566;2023-04-26T06:13:43;95743.03;;;6.87;85.38
25420;BME280;13354;48.174;11.566;2023-04-26T06:16:09;95752.09;;;6.92;85.18
25420;BME280;13354;48.174;11.566;2023-04-26T06:18:34;95754.22;;;6.81;85.50
25420;BME280;13354;48.174;11.566;2023-04-26T06:20:59;95753.69;;;7.01;84.86
25420;BME280;13354;48.174;11.566;2023-04-26T06:23:24;95743.53;;;6.90;84.24
25420;BME280;13354;48.174;11.566;2023-04-26T06:25:50;95750.94;;;6.87;85.79
25420;BME280;13354;48.174;11.566;2023-04-26T06:28:15;95751.59;;;6.97;85.71
25420;BME280;13354;48.174;11.566;2023-04-26T06:30:41;95752.53;;;7.12;83.56
25420;BME280;13354;48.174;11.566;2023-04-26T06:33:06;95740.34;;;7.19;83.00
25420;BME280;13354;48.174;11.566;2023-04-26T06:35:31;95737.09;;;7.01;83.56
25420;BME280;13354;48.174;11.566;2023-04-26T06:37:56;95751.59;;;6.97;84.36
25420;BME280;13354;48.174;11.566;2023-04-26T06:40:22;95746.44;;;7.12;84.48
25420;BME280;13354;48.174;11.566;2023-04-26T06:42:47;95750.25;;;7.01;83.82
25420;BME280;13354;48.174;11.566;2023-04-26T06:45:13;95744.41;;;7.30;83.00
25420;BME280;13354;48.174;11.566;2023-04-26T06:47:38;95748.06;;;7.29;82.18
25420;BME280;13354;48.174;11.566;2023-04-26T06:50:03;95748.50;;;7.41;82.62
25420;BME280;13354;48.174;11.566;2023-04-26T06:52:29;95743.44;;;7.70;82.07
25420;BME280;13354;48.174;11.566;2023-04-26T06:54:54;95752.69;;;8.20;78.93
25420;BME280;13354;48.174;11.566;2023-04-26T06:57:20;95759.03;;;8.34;77.34
25420;BME280;13354;48.174;11.566;2023-04-26T06:59:45;95758.06;;;8.58;76.98
25420;BME280;13354;48.174;11.566;2023-04-26T07:02:10;95756.47;;;8.49;76.21
25420;BME280;13354;48.174;11.566;2023-04-26T07:04:36;95752.66;;;8.52;76.45
25420;BME280;13354;48.174;11.566;2023-04-26T07:07:01;95763.56;;;8.49;76.17
25420;BME280;13354;48.174;11.566;2023-04-26T07:09:27;95769.91;;;8.08;74.63
25420;BME280;13354;48.174;11.566;2023-04-26T07:11:52;95765.22;;;8.18;75.09
25420;BME280;13354;48.174;11.566;2023-04-26T07:14:17;95765.84;;;7.97;75.33
25420;BME280;13354;48.174;11.566;2023-04-26T07:16:43;95763.34;;;8.04;75.81
25420;BME280;13354;48.174;11.566;2023-04-26T07:19:08;95760.72;;;8.04;75.01
25420;BME280;13354;48.174;11.566;2023-04-26T07:21:34;95758.13;;;7.88;74.61
25420;BME280;13354;48.174;11.566;2023-04-26T07:24:00;95761.31;;;8.14;74.17
25420;BME280;13354;48.174;11.566;2023-04-26T07:26:25;95758.13;;;8.19;73.39
25420;BME280;13354;48.174;11.566;2023-04-26T07:28:51;95759.25;;;8.24;74.09
25420;BME280;13354;48.174;11.566;2023-04-26T07:31:16;95753.47;;;8.29;73.26
25420;BME280;13354;48.174;11.566;2023-04-26T07:33:41;95751.91;;;8.35;73.02
25420;BME280;13354;48.174;11.566;2023-04-26T07:36:07;95744.81;;;8.43;72.32
25420;BME280;13354;48.174;11.566;2023-04-26T07:38:32;95755.16;;;8.22;73.05
25420;BME280;13354;48.174;11.566;2023-04-26T07:40:58;95752.66;;;8.29;73.29
25420;BME280;13354;48.174;11.566;2023-04-26T07:43:25;95746.47;;;8.36;73.64
25420;BME280;13354;48.174;11.566;2023-04-26T07:45:50;95753.34;;;8.45;73.37
25420;BME280;13354;48.174;11.566;2023-04-26T07:48:15;95750.50;;;8.55;73.72
25420;BME280;13354;48.174;11.566;2023-04-26T07:50:40;95751.94;;;8.58;71.81
25420;BME280;13354;48.174;11.566;2023-04-26T07:53:06;95748.41;;;8.51;71.61
25420;BME280;13354;48.174;11.566;2023-04-26T07:55:31;95746.66;;;8.81;72.31
25420;BME280;13354;48.174;11.566;2023-04-26T07:57:56;95756.38;;;8.80;69.62
25420;BME280;13354;48.174;11.566;2023-04-26T08:00:22;95754.38;;;8.82;69.50
25420;BME280;13354;48.174;11.566;2023-04-26T08:02:47;95761.28;;;8.83;69.75
25420;BME280;13354;48.174;11.566;2023-04-26T08:05:13;95766.22;;;8.86;69.83
25420;BME280;13354;48.174;11.566;2023-04-26T08:07:38;95755.75;;;8.93;70.03
25420;BME280;13354;48.174;11.566;2023-04-26T08:10:04;95754.47;;;8.89;68.56
25420;BME280;13354;48.174;11.566;2023-04-26T08:12:29;95745.66;;;8.97;68.16
25420;BME280;13354;48.174;11.566;2023-04-26T08:14:55;95744.03;;;9.10;67.71
25420;BME280;13354;48.174;11.566;2023-04-26T08:17:20;95748.41;;;9.62;66.58
25420;BME280;13354;48.174;11.566;2023-04-26T08:19:45;95747.63;;;9.98;66.43
25420;BME280;13354;48.174;11.566;2023-04-26T08:22:10;95747.22;;;10.37;66.13
25420;BME280;13354;48.174;11.566;2023-04-26T08:24:35;95746.47;;;10.65;65.12
25420;BME280;13354;48.174;11.566;2023-04-26T08:27:01;95748.69;;;10.89;63.88
25420;BME280;13354;48.174;11.566;2023-04-26T08:29:26;95746.97;;;11.03;63.53
25420;BME280;13354;48.174;11.566;2023-04-26T08:31:52;95742.13;;;10.79;59.91
25420;BME280;13354;48.174;11.566;2023-04-26T08:34:17;95742.59;;;11.17;59.79
25420;BME280;13354;48.174;11.566;2023-04-26T08:36:42;95747.78;;;10.97;61.21
25420;BME280;13354;48.174;11.566;2023-04-26T08:39:08;95743.16;;;10.84;58.92
25420;BME280;13354;48.174;11.566;2023-04-26T08:41:41;95748.94;;;10.45;60.50
25420;BME280;13354;48.174;11.566;2023-04-26T08:44:07;95753.41;;;10.45;60.15
25420;BME280;13354;48.174;11.566;2023-04-26T08:47:36;95754.13;;;10.53;60.39
25420;BME280;13354;48.174;11.566;2023-04-26T08:49:31;95744.47;;;10.46;61.20
25420;BME280;13354;48.174;11.566;2023-04-26T08:52:00;95741.94;;;10.59;61.33
25420;BME280;13354;48.174;11.566;2023-04-26T08:54:27;95746.09;;;10.68;61.92
25420;BME280;13354;48.174;11.566;2023-04-26T08:56:53;95741.72;;;10.82;59.59
25420;BME280;13354;48.174;11.566;2023-04-26T08:59:19;95749.06;;;10.58;59.20
25420;BME280;13354;48.174;11.566;2023-04-26T09:01:45;95747.44;;;10.57;59.16
25420;BME280;13354;48.174;11.566;2023-04-26T09:04:11;95741.19;;;10.44;59.05
25420;BME280;13354;48.174;11.566;2023-04-26T09:06:36;95749.28;;;10.57;58.20
25420;BME280;13354;48.174;11.566;2023-04-26T09:09:02;95748.75;;;10.68;58.56
25420;BME280;13354;48.174;11.566;2023-04-26T09:11:50;95753.91;;;10.55;57.69
25420;BME280;13354;48.174;11.566;2023-04-26T09:14:15;95754.44;;;10.65;56.85
25420;BME280;13354;48.174;11.566;2023-04-26T09:16:41;95751.19;;;10.70;57.20
25420;BME280;13354;48.174;11.566;2023-04-26T09:19:06;95748.16;;;11.01;55.92
25420;BME280;13354;48.174;11.566;2023-04-26T09:21:31;95736.06;;;11.13;55.46
25420;BME280;13354;48.174;11.566;2023-04-26T09:24:00;95741.19;;;10.93;56.18
25420;BME280;13354;48.174;11.566;2023-04-26T09:26:30;95737.66;;;11.42;55.54
25420;BME280;13354;48.174;11.566;2023-04-26T09:29:14;95730.13;;;11.46;54.95
25420;BME280;13354;48.174;11.566;2023-04-26T09:31:47;95738.34;;;11.57;54.42
25420;BME280;13354;48.174;11.566;2023-04-26T09:34:12;95735.22;;;11.47;55.41
25420;BME280;13354;48.174;11.566;2023-04-26T09:36:47;95735.19;;;11.41;55.33
25420;BME280;13354;48.174;11.566;2023-04-26T09:39:13;95737.38;;;11.30;55.00
25420;BME280;13354;48.174;11.566;2023-04-26T09:41:42;95745.44;;;10.87;52.59
25420;BME280;13354;48.174;11.566;2023-04-26T09:44:19;95738.50;;;10.86;53.26
25420;BME280;13354;48.174;11.566;2023-04-26T09:46:55;95735.03;;;10.86;53.95
25420;BME280;13354;48.174;11.566;2023-04-26T09:49:21;95743.50;;;10.75;55.46
25420;BME280;13354;48.174;11.566;2023-04-26T09:51:58;95737.72;;;10.93;53.96
25420;BME280;13354;48.174;11.566;2023-04-26T09:54:36;95737.59;;;10.73;54.08
25420;BME280;13354;48.174;11.566;2023-04-26T09:57:01;95742.19;;;10.64;55.93
25420;BME280;13354;48.174;11.566;2023-04-26T09:59:30;95744.66;;;10.66;54.62
25420;BME280;13354;48.174;11.566;2023-04-26T10:02:02;95740.81;;;10.68;54.31
25420;BME280;13354;48.174;11.566;2023-04-26T10:04:28;95741.31;;;10.57;54.02
25420;BME280;13354;48.174;11.566;2023-04-26T10:06:53;95745.91;;;10.70;54.82
25420;BME280;13354;48.174;11.566;2023-04-26T10:09:19;95734.91;;;10.94;55.09
25420;BME280;13354;48.174;11.566;2023-04-26T10:11:44;95734.94;;;11.01;54.66
25420;BME280;13354;48.174;11.566;2023-04-26T10:14:10;95727.06;;;10.86;54.33
25420;BME280;13354;48.174;11.566;2023-04-26T10:16:36;95735.66;;;10.88;53.27
25420;BME280;13354;48.174;11.566;2023-04-26T10:19:02;95728.56;;;10.67;53.03
25420;BME280;13354;48.174;11.566;2023-04-26T10:21:29;95725.59;;;11.05;52.82
25420;BME280;13354;48.174;11.566;2023-04-26T10:23:55;95722.22;;;11.18;53.66
25420;BME280;13354;48.174;11.566;2023-04-26T10:29:06;95715.09;;;12.14;51.57
25420;BME280;13354;48.174;11.566;2023-04-26T10:34:19;95708.63;;;13.29;51.86
25420;BME280;13354;48.174;11.566;2023-04-26T10:39:28;95690.78;;;14.33;46.36
25420;BME280;13354;48.174;11.566;2023-04-26T10:42:15;95699.03;;;14.25;46.78
25420;BME280;13354;48.174;11.566;2023-04-26T10:44:42;95697.66;;;14.09;46.57
25420;BME280;13354;48.174;11.566;2023-04-26T10:47:52;95703.91;;;13.90;47.47
25420;BME280;13354;48.174;11.566;2023-04-26T10:52:29;95694.63;;;13.54;47.98
25420;BME280;13354;48.174;11.566;2023-04-26T10:54:55;95687.59;;;13.80;46.59
25420;BME280;13354;48.174;11.566;2023-04-26T10:57:22;95674.59;;;14.03;46.37
25420;BME280;13354;48.174;11.566;2023-04-26T11:08:18;95656.53;;;15.85;43.18
25420;BME280;13354;48.174;11.566;2023-04-26T11:10:50;95659.09;;;16.10;43.28
25420;BME280;13354;48.174;11.566;2023-04-26T11:13:16;95657.34;;;16.46;44.03
25420;BME280;13354;48.174;11.566;2023-04-26T11:15:43;95659.34;;;15.90;42.71
25420;BME280;13354;48.174;11.566;2023-04-26T11:18:08;95655.81;;;15.60;43.64
25420;BME280;13354;48.174;11.566;2023-04-26T11:20:33;95658.84;;;15.27;44.62
25420;BME280;13354;48.174;11.566;2023-04-26T11:22:59;95662.63;;;14.76;45.27
25420;BME280;13354;48.174;11.566;2023-04-26T11:25:27;95657.78;;;14.34;47.52
25420;BME280;13354;48.174;11.566;2023-04-26T11:27:57;95664.91;;;14.09;47.69
25420;BME280;13354;48.174;11.566;2023-04-26T11:30:22;95666.16;;;13.68;45.95
25420;BME280;13354;48.174;11.566;2023-04-26T11:32:47;95663.22;;;13.24;47.76
25420;BME280;13354;48.174;11.566;2023-04-26T11:35:14;95667.72;;;13.11;48.25
25420;BME280;13354;48.174;11.566;2023-04-26T11:37:39;95658.97;;;12.84;48.16
25420;BME280;13354;48.174;11.566;2023-04-26T11:40:05;95661.47;;;12.78;48.60
25420;BME280;13354;48.174;11.566;2023-04-26T11:42:31;95653.03;;;13.01;48.61
25420;BME280;13354;48.174;11.566;2023-04-26T11:44:56;95651.69;;;13.44;49.16
25420;BME280;13354;48.174;11.566;2023-04-26T11:47:23;95654.72;;;13.61;48.71
25420;BME280;13354;48.174;11.566;2023-04-26T11:49:50;95651.59;;;14.09;47.24
25420;BME280;13354;48.174;11.566;2023-04-26T11:52:15;95658.06;;;13.88;46.27
25420;BME280;13354;48.174;11.566;2023-04-26T11:54:40;95669.94;;;13.92;47.85
25420;BME280;13354;48.174;11.566;2023-04-26T11:57:14;95657.56;;;14.36;49.22
25420;BME280;13354;48.174;11.566;2023-04-26T11:59:40;95658.53;;;15.16;44.33
25420;BME280;13354;48.174;11.566;2023-04-26T12:02:06;95648.97;;;15.09;43.85
25420;BME280;13354;48.174;11.566;2023-04-26T12:04:31;95647.75;;;15.30;43.48
25420;BME280;13354;48.174;11.566;2023-04-26T12:06:56;95649.59;;;15.48;42.67
25420;BME280;13354;48.174;11.566;2023-04-26T12:09:25;95646.38;;;15.20;42.28
25420;BME280;13354;48.174;11.566;2023-04-26T12:11:58;95654.28;;;14.65;44.19
25420;BME280;13354;48.174;11.566;2023-04-26T12:14:37;95658.59;;;14.66;44.63
25420;BME280;13354;48.174;11.566;2023-04-26T12:17:02;95665.63;;;14.29;44.44
25420;BME280;13354;48.174;11.566;2023-04-26T12:19:35;95653.03;;;14.11;45.02
25420;BME280;13354;48.174;11.566;2023-04-26T12:22:03;95654.22;;;14.15;44.68
25420;BME280;13354;48.174;11.566;2023-04-26T12:24:29;95653.06;;;14.36;45.74
25420;BME280;13354;48.174;11.566;2023-04-26T12:26:58;95648.38;;;14.88;46.85
25420;BME280;13354;48.174;11.566;2023-04-26T12:29:23;95646.66;;;14.94;44.21
25420;BME280;13354;48.174;11.566;2023-04-26T12:31:48;95655.94;;;14.91;42.35
25420;BME280;13354;48.174;11.566;2023-04-26T12:34:14;95658.56;;;14.73;43.76
25420;BME280;13354;48.174;11.566;2023-04-26T12:36:39;95656.53;;;14.68;43.63
25420;BME280;13354;48.174;11.566;2023-04-26T12:39:07;95650.13;;;14.51;43.64
25420;BME280;13354;48.174;11.566;2023-04-26T12:41:32;95658.69;;;13.90;44.72
25420;BME280;13354;48.174;11.566;2023-04-26T12:43:57;95656.56;;;13.60;45.02
25420;BME280;13354;48.174;11.566;2023-04-26T12:46:22;95660.53;;;13.44;45.76
25420;BME280;13354;48.174;11.566;2023-04-26T12:48:48;95657.09;;;13.24;46.20
25420;BME280;13354;48.174;11.566;2023-04-26T12:51:13;95657.31;;;13.09;46.14
25420;BME280;13354;48.174;11.566;2023-04-26T12:53:38;95645.88;;;12.95;46.39
25420;BME280;13354;48.174;11.566;2023-04-26T12:56:04;95640.38;;;12.84;47.75
25420;BME280;13354;48.174;11.566;2023-04-26T12:58:29;95635.03;;;13.23;48.36
25420;BME280;13354;48.174;11.566;2023-04-26T13:00:54;95639.56;;;13.61;45.51
25420;BME280;13354;48.174;11.566;2023-04-26T13:03:20;95644.38;;;13.84;44.00
25420;BME280;13354;48.174;11.566;2023-04-26T13:05:45;95637.53;;;14.01;43.71
25420;BME280;13354;48.174;11.566;2023-04-26T13:08:10;95636.78;;;14.19;44.05
25420;BME280;13354;48.174;11.566;2023-04-26T13:10:35;95638.38;;;14.27;44.58
25420;BME280;13354;48.174;11.566;2023-04-26T13:13:01;95619.41;;;14.42;43.69